Hillman, Michigan
Current Conditions -  °F | °C
As of 3:54 AM on Monday 20 Oct 2014 (Local Time) from KAPN Reporting Station
Overcast Overcast  
Wind Chill: 44°   Ceiling: 3700
Heat Index: 46°   Visibility: 10mi
Dew Point: 41°   Wind: 5mph
Humidity: 83%   Direction: 200°SSW
Pressure: 29.77"   Gusts: NA
Location:  45.06°N, 83.9°W
Report Text: KAPN 200754Z AUTO 20004KT 10SM OVC037 08/05 A2977 RMK AO2 RAE0658 SLP086 P0000 T00780050
Loading
Personal Weather Stations






























Interactive Weather Map
Tropical Storm Tracking
New forecast layout! Learn more

10-Day Weather Forecast

Advertisements
Track Severe Weather on mobile